sensor_id;sensor_type;location;lat;lon;timestamp;P1;durP1;ratioP1;P2;durP2;ratioP2
65737;SDS011;52478;51.844;6.582;2022-08-03T00:01:57;7.30;;;2.42;;
65737;SDS011;52478;51.844;6.582;2022-08-03T00:04:24;6.72;;;2.58;;
65737;SDS011;52478;51.844;6.582;2022-08-03T00:06:51;5.53;;;2.33;;
65737;SDS011;52478;51.844;6.582;2022-08-03T00:09:17;7.05;;;2.38;;
65737;SDS011;52478;51.844;6.582;2022-08-03T00:11:43;6.35;;;2.40;;
65737;SDS011;52478;51.844;6.582;2022-08-03T00:14:09;7.18;;;2.97;;
65737;SDS011;52478;51.844;6.582;2022-08-03T00:16:36;6.32;;;2.58;;
65737;SDS011;52478;51.844;6.582;2022-08-03T00:19:02;6.97;;;2.70;;
65737;SDS011;52478;51.844;6.582;2022-08-03T00:21:30;8.80;;;2.40;;
65737;SDS011;52478;51.844;6.582;2022-08-03T00:23:56;7.30;;;2.50;;
65737;SDS011;52478;51.844;6.582;2022-08-03T00:26:22;6.65;;;2.70;;
65737;SDS011;52478;51.844;6.582;2022-08-03T00:28:49;7.22;;;2.45;;
65737;SDS011;52478;51.844;6.582;2022-08-03T00:31:15;7.07;;;2.60;;
65737;SDS011;52478;51.844;6.582;2022-08-03T00:33:42;8.55;;;2.80;;
65737;SDS011;52478;51.844;6.582;2022-08-03T00:36:08;6.57;;;2.53;;
65737;SDS011;52478;51.844;6.582;2022-08-03T00:38:36;6.20;;;2.92;;
65737;SDS011;52478;51.844;6.582;2022-08-03T00:41:02;7.82;;;2.55;;
65737;SDS011;52478;51.844;6.582;2022-08-03T00:43:28;6.75;;;2.72;;
65737;SDS011;52478;51.844;6.582;2022-08-03T00:45:55;6.93;;;2.53;;
65737;SDS011;52478;51.844;6.582;2022-08-03T00:48:21;7.60;;;2.72;;
65737;SDS011;52478;51.844;6.582;2022-08-03T00:50:48;7.03;;;2.53;;
65737;SDS011;52478;51.844;6.582;2022-08-03T00:53:14;7.65;;;2.80;;
65737;SDS011;52478;51.844;6.582;2022-08-03T00:55:42;6.30;;;2.72;;
65737;SDS011;52478;51.844;6.582;2022-08-03T00:58:08;7.45;;;2.53;;
65737;SDS011;52478;51.844;6.582;2022-08-03T01:00:36;7.28;;;2.75;;
65737;SDS011;52478;51.844;6.582;2022-08-03T01:03:03;6.10;;;2.80;;
65737;SDS011;52478;51.844;6.582;2022-08-03T01:05:30;7.38;;;2.88;;
65737;SDS011;52478;51.844;6.582;2022-08-03T01:08:02;6.00;;;2.70;;
65737;SDS011;52478;51.844;6.582;2022-08-03T01:10:32;6.22;;;2.70;;
65737;SDS011;52478;51.844;6.582;2022-08-03T01:13:15;6.80;;;2.95;;
65737;SDS011;52478;51.844;6.582;2022-08-03T01:15:43;5.72;;;2.63;;
65737;SDS011;52478;51.844;6.582;2022-08-03T01:18:11;6.15;;;2.40;;
65737;SDS011;52478;51.844;6.582;2022-08-03T01:20:41;7.20;;;2.67;;
65737;SDS011;52478;51.844;6.582;2022-08-03T01:23:32;6.50;;;2.50;;
65737;SDS011;52478;51.844;6.582;2022-08-03T01:26:12;6.78;;;2.88;;
65737;SDS011;52478;51.844;6.582;2022-08-03T01:28:55;8.15;;;2.50;;
65737;SDS011;52478;51.844;6.582;2022-08-03T01:31:25;7.82;;;2.70;;
65737;SDS011;52478;51.844;6.582;2022-08-03T01:33:54;7.68;;;2.90;;
65737;SDS011;52478;51.844;6.582;2022-08-03T01:36:23;7.13;;;2.55;;
65737;SDS011;52478;51.844;6.582;2022-08-03T01:38:52;6.55;;;2.60;;
65737;SDS011;52478;51.844;6.582;2022-08-03T01:41:20;9.23;;;2.92;;
65737;SDS011;52478;51.844;6.582;2022-08-03T01:43:48;6.95;;;2.92;;
65737;SDS011;52478;51.844;6.582;2022-08-03T01:46:16;7.60;;;2.63;;
65737;SDS011;52478;51.844;6.582;2022-08-03T01:48:44;6.40;;;2.92;;
65737;SDS011;52478;51.844;6.582;2022-08-03T01:51:11;7.45;;;3.13;;
65737;SDS011;52478;51.844;6.582;2022-08-03T01:53:38;6.65;;;2.65;;
65737;SDS011;52478;51.844;6.582;2022-08-03T01:56:06;7.50;;;2.80;;
65737;SDS011;52478;51.844;6.582;2022-08-03T01:58:34;7.32;;;2.92;;
65737;SDS011;52478;51.844;6.582;2022-08-03T02:01:00;8.02;;;3.00;;
65737;SDS011;52478;51.844;6.582;2022-08-03T02:03:27;8.15;;;3.28;;
65737;SDS011;52478;51.844;6.582;2022-08-03T02:05:56;8.13;;;2.88;;
65737;SDS011;52478;51.844;6.582;2022-08-03T02:08:23;7.40;;;3.00;;
65737;SDS011;52478;51.844;6.582;2022-08-03T02:10:50;6.60;;;2.90;;
65737;SDS011;52478;51.844;6.582;2022-08-03T02:13:17;7.78;;;2.85;;
65737;SDS011;52478;51.844;6.582;2022-08-03T02:15:44;8.40;;;2.85;;
65737;SDS011;52478;51.844;6.582;2022-08-03T02:18:11;7.43;;;3.20;;
65737;SDS011;52478;51.844;6.582;2022-08-03T02:20:38;7.88;;;3.13;;
65737;SDS011;52478;51.844;6.582;2022-08-03T02:23:06;7.40;;;3.35;;
65737;SDS011;52478;51.844;6.582;2022-08-03T02:25:34;7.72;;;3.35;;
65737;SDS011;52478;51.844;6.582;2022-08-03T02:28:05;7.20;;;3.20;;
65737;SDS011;52478;51.844;6.582;2022-08-03T02:30:32;8.30;;;3.15;;
65737;SDS011;52478;51.844;6.582;2022-08-03T02:33:01;6.53;;;2.78;;
65737;SDS011;52478;51.844;6.582;2022-08-03T02:37:56;7.95;;;2.97;;
65737;SDS011;52478;51.844;6.582;2022-08-03T02:40:25;7.70;;;3.30;;
65737;SDS011;52478;51.844;6.582;2022-08-03T02:42:52;7.05;;;3.30;;
65737;SDS011;52478;51.844;6.582;2022-08-03T02:45:20;7.75;;;3.47;;
65737;SDS011;52478;51.844;6.582;2022-08-03T02:47:48;8.98;;;3.35;;
65737;SDS011;52478;51.844;6.582;2022-08-03T02:50:18;8.43;;;3.28;;
65737;SDS011;52478;51.844;6.582;2022-08-03T02:52:44;9.07;;;3.55;;
65737;SDS011;52478;51.844;6.582;2022-08-03T02:55:12;7.65;;;3.33;;
65737;SDS011;52478;51.844;6.582;2022-08-03T02:57:40;8.43;;;3.10;;
65737;SDS011;52478;51.844;6.582;2022-08-03T03:00:08;6.43;;;3.08;;
65737;SDS011;52478;51.844;6.582;2022-08-03T03:02:34;7.53;;;2.97;;
65737;SDS011;52478;51.844;6.582;2022-08-03T03:14:47;8.25;;;3.15;;
65737;SDS011;52478;51.844;6.582;2022-08-03T03:17:14;8.65;;;3.42;;
65737;SDS011;52478;51.844;6.582;2022-08-03T03:19:42;9.10;;;3.10;;
65737;SDS011;52478;51.844;6.582;2022-08-03T03:22:09;8.43;;;3.40;;
65737;SDS011;52478;51.844;6.582;2022-08-03T03:24:36;10.43;;;3.30;;
65737;SDS011;52478;51.844;6.582;2022-08-03T03:27:03;7.25;;;3.10;;
65737;SDS011;52478;51.844;6.582;2022-08-03T03:29:29;7.03;;;3.35;;
65737;SDS011;52478;51.844;6.582;2022-08-03T03:31:58;7.80;;;3.10;;
65737;SDS011;52478;51.844;6.582;2022-08-03T03:34:25;9.65;;;4.07;;
65737;SDS011;52478;51.844;6.582;2022-08-03T03:36:53;7.78;;;3.75;;
65737;SDS011;52478;51.844;6.582;2022-08-03T03:39:20;8.05;;;3.70;;
65737;SDS011;52478;51.844;6.582;2022-08-03T03:41:46;8.07;;;3.67;;
65737;SDS011;52478;51.844;6.582;2022-08-03T03:44:12;10.35;;;3.42;;
65737;SDS011;52478;51.844;6.582;2022-08-03T03:46:39;9.52;;;3.33;;
65737;SDS011;52478;51.844;6.582;2022-08-03T03:49:07;7.07;;;3.20;;
65737;SDS011;52478;51.844;6.582;2022-08-03T03:51:33;6.90;;;3.53;;
65737;SDS011;52478;51.844;6.582;2022-08-03T03:54:01;11.15;;;3.63;;
65737;SDS011;52478;51.844;6.582;2022-08-03T03:56:28;6.45;;;3.00;;
65737;SDS011;52478;51.844;6.582;2022-08-03T03:58:54;6.60;;;3.25;;
65737;SDS011;52478;51.844;6.582;2022-08-03T04:01:21;8.98;;;3.40;;
65737;SDS011;52478;51.844;6.582;2022-08-03T04:03:47;7.15;;;3.20;;
65737;SDS011;52478;51.844;6.582;2022-08-03T04:06:15;7.35;;;3.30;;
65737;SDS011;52478;51.844;6.582;2022-08-03T04:08:59;9.23;;;3.53;;
65737;SDS011;52478;51.844;6.582;2022-08-03T04:11:40;6.30;;;3.08;;
65737;SDS011;52478;51.844;6.582;2022-08-03T04:14:10;8.18;;;3.30;;
65737;SDS011;52478;51.844;6.582;2022-08-03T04:16:37;6.88;;;3.20;;
65737;SDS011;52478;51.844;6.582;2022-08-03T04:19:06;8.63;;;3.38;;
65737;SDS011;52478;51.844;6.582;2022-08-03T04:21:34;7.35;;;3.47;;
65737;SDS011;52478;51.844;6.582;2022-08-03T04:24:03;8.85;;;3.47;;
65737;SDS011;52478;51.844;6.582;2022-08-03T04:26:32;7.43;;;3.35;;
65737;SDS011;52478;51.844;6.582;2022-08-03T04:29:01;6.72;;;3.13;;
65737;SDS011;52478;51.844;6.582;2022-08-03T04:31:27;8.57;;;3.67;;
65737;SDS011;52478;51.844;6.582;2022-08-03T04:33:55;9.32;;;3.42;;
65737;SDS011;52478;51.844;6.582;2022-08-03T04:36:22;8.90;;;3.15;;
65737;SDS011;52478;51.844;6.582;2022-08-03T04:38:55;9.23;;;3.58;;
65737;SDS011;52478;51.844;6.582;2022-08-03T04:41:24;7.28;;;2.80;;
65737;SDS011;52478;51.844;6.582;2022-08-03T04:43:52;8.90;;;3.70;;
65737;SDS011;52478;51.844;6.582;2022-08-03T04:46:19;7.65;;;3.30;;
65737;SDS011;52478;51.844;6.582;2022-08-03T04:48:47;7.07;;;2.90;;
65737;SDS011;52478;51.844;6.582;2022-08-03T04:51:14;9.93;;;3.25;;
65737;SDS011;52478;51.844;6.582;2022-08-03T04:53:41;10.32;;;3.22;;
65737;SDS011;52478;51.844;6.582;2022-08-03T04:56:09;8.40;;;3.10;;
65737;SDS011;52478;51.844;6.582;2022-08-03T04:58:35;8.38;;;2.95;;
65737;SDS011;52478;51.844;6.582;2022-08-03T05:01:02;9.13;;;3.10;;
65737;SDS011;52478;51.844;6.582;2022-08-03T05:03:28;8.60;;;3.25;;
65737;SDS011;52478;51.844;6.582;2022-08-03T05:05:55;7.10;;;3.05;;
65737;SDS011;52478;51.844;6.582;2022-08-03T05:08:22;7.05;;;2.90;;
65737;SDS011;52478;51.844;6.582;2022-08-03T05:10:48;6.32;;;3.03;;
65737;SDS011;52478;51.844;6.582;2022-08-03T05:13:16;7.20;;;3.03;;
65737;SDS011;52478;51.844;6.582;2022-08-03T05:15:42;8.25;;;3.22;;
65737;SDS011;52478;51.844;6.582;2022-08-03T05:18:09;7.45;;;3.03;;
65737;SDS011;52478;51.844;6.582;2022-08-03T05:20:35;8.65;;;3.22;;
65737;SDS011;52478;51.844;6.582;2022-08-03T05:23:01;8.48;;;3.00;;
65737;SDS011;52478;51.844;6.582;2022-08-03T05:25:28;9.07;;;3.30;;
65737;SDS011;52478;51.844;6.582;2022-08-03T05:27:54;8.80;;;3.17;;
65737;SDS011;52478;51.844;6.582;2022-08-03T05:30:22;10.68;;;3.72;;
65737;SDS011;52478;51.844;6.582;2022-08-03T05:32:48;10.45;;;3.33;;
65737;SDS011;52478;51.844;6.582;2022-08-03T05:35:15;10.88;;;4.00;;
65737;SDS011;52478;51.844;6.582;2022-08-03T05:37:41;9.55;;;3.70;;
65737;SDS011;52478;51.844;6.582;2022-08-03T05:40:08;8.27;;;3.70;;
65737;SDS011;52478;51.844;6.582;2022-08-03T05:42:35;9.45;;;3.88;;
65737;SDS011;52478;51.844;6.582;2022-08-03T05:45:02;8.27;;;3.58;;
65737;SDS011;52478;51.844;6.582;2022-08-03T05:47:38;11.40;;;4.45;;
65737;SDS011;52478;51.844;6.582;2022-08-03T05:50:05;13.55;;;4.78;;
65737;SDS011;52478;51.844;6.582;2022-08-03T05:52:31;11.27;;;4.40;;
65737;SDS011;52478;51.844;6.582;2022-08-03T05:54:57;12.23;;;4.25;;
65737;SDS011;52478;51.844;6.582;2022-08-03T05:57:24;11.57;;;4.22;;
65737;SDS011;52478;51.844;6.582;2022-08-03T05:59:50;11.70;;;3.97;;
65737;SDS011;52478;51.844;6.582;2022-08-03T06:02:17;11.60;;;4.03;;
65737;SDS011;52478;51.844;6.582;2022-08-03T06:04:44;9.00;;;3.90;;
65737;SDS011;52478;51.844;6.582;2022-08-03T06:07:11;9.43;;;3.80;;
65737;SDS011;52478;51.844;6.582;2022-08-03T06:09:37;9.18;;;4.40;;
65737;SDS011;52478;51.844;6.582;2022-08-03T06:12:05;10.70;;;3.80;;
65737;SDS011;52478;51.844;6.582;2022-08-03T06:14:31;7.60;;;3.55;;
65737;SDS011;52478;51.844;6.582;2022-08-03T06:16:58;10.23;;;3.65;;
65737;SDS011;52478;51.844;6.582;2022-08-03T06:19:24;8.70;;;3.95;;
65737;SDS011;52478;51.844;6.582;2022-08-03T06:24:19;14.88;;;4.18;;
65737;SDS011;52478;51.844;6.582;2022-08-03T06:26:45;7.78;;;3.88;;
65737;SDS011;52478;51.844;6.582;2022-08-03T06:29:11;14.23;;;4.53;;
65737;SDS011;52478;51.844;6.582;2022-08-03T06:31:37;10.00;;;5.05;;
65737;SDS011;52478;51.844;6.582;2022-08-03T06:34:04;10.70;;;4.30;;
65737;SDS011;52478;51.844;6.582;2022-08-03T06:36:30;9.10;;;4.32;;
65737;SDS011;52478;51.844;6.582;2022-08-03T06:38:57;10.05;;;4.60;;
65737;SDS011;52478;51.844;6.582;2022-08-03T06:41:24;11.55;;;4.07;;
65737;SDS011;52478;51.844;6.582;2022-08-03T06:43:51;9.25;;;3.80;;
65737;SDS011;52478;51.844;6.582;2022-08-03T06:46:17;8.32;;;2.95;;
65737;SDS011;52478;51.844;6.582;2022-08-03T06:48:44;9.63;;;2.97;;
65737;SDS011;52478;51.844;6.582;2022-08-03T06:51:10;7.43;;;3.20;;
65737;SDS011;52478;51.844;6.582;2022-08-03T06:53:37;10.43;;;2.95;;
65737;SDS011;52478;51.844;6.582;2022-08-03T06:56:03;8.15;;;2.83;;
65737;SDS011;52478;51.844;6.582;2022-08-03T06:58:31;7.97;;;2.72;;
65737;SDS011;52478;51.844;6.582;2022-08-03T07:00:57;6.88;;;2.70;;
65737;SDS011;52478;51.844;6.582;2022-08-03T07:03:24;9.43;;;2.47;;
65737;SDS011;52478;51.844;6.582;2022-08-03T07:05:50;8.23;;;2.53;;
65737;SDS011;52478;51.844;6.582;2022-08-03T07:08:17;6.75;;;2.55;;
65737;SDS011;52478;51.844;6.582;2022-08-03T07:10:43;6.40;;;3.20;;
65737;SDS011;52478;51.844;6.582;2022-08-03T07:13:10;6.68;;;2.45;;
65737;SDS011;52478;51.844;6.582;2022-08-03T07:15:38;7.40;;;2.80;;
65737;SDS011;52478;51.844;6.582;2022-08-03T07:18:04;8.63;;;3.15;;
65737;SDS011;52478;51.844;6.582;2022-08-03T07:20:30;11.00;;;2.78;;
65737;SDS011;52478;51.844;6.582;2022-08-03T07:22:57;6.47;;;2.60;;
65737;SDS011;52478;51.844;6.582;2022-08-03T07:25:23;6.47;;;2.47;;
65737;SDS011;52478;51.844;6.582;2022-08-03T07:27:50;7.25;;;2.70;;
65737;SDS011;52478;51.844;6.582;2022-08-03T07:30:16;8.82;;;2.92;;
65737;SDS011;52478;51.844;6.582;2022-08-03T07:32:44;7.07;;;2.47;;
65737;SDS011;52478;51.844;6.582;2022-08-03T07:35:11;6.22;;;2.50;;
65737;SDS011;52478;51.844;6.582;2022-08-03T07:37:37;5.70;;;2.35;;
65737;SDS011;52478;51.844;6.582;2022-08-03T07:40:04;7.05;;;2.53;;
65737;SDS011;52478;51.844;6.582;2022-08-03T07:47:24;11.00;;;2.70;;
65737;SDS011;52478;51.844;6.582;2022-08-03T07:49:57;5.95;;;2.50;;
65737;SDS011;52478;51.844;6.582;2022-08-03T07:52:24;9.68;;;2.55;;
65737;SDS011;52478;51.844;6.582;2022-08-03T07:55:08;6.72;;;2.80;;
65737;SDS011;52478;51.844;6.582;2022-08-03T07:57:35;8.18;;;2.75;;
65737;SDS011;52478;51.844;6.582;2022-08-03T08:00:02;6.60;;;2.55;;
65737;SDS011;52478;51.844;6.582;2022-08-03T08:02:28;6.68;;;2.25;;
65737;SDS011;52478;51.844;6.582;2022-08-03T08:04:55;6.47;;;2.25;;
65737;SDS011;52478;51.844;6.582;2022-08-03T08:07:22;7.20;;;2.28;;
65737;SDS011;52478;51.844;6.582;2022-08-03T08:09:50;7.30;;;2.15;;
65737;SDS011;52478;51.844;6.582;2022-08-03T08:12:16;6.15;;;2.30;;
65737;SDS011;52478;51.844;6.582;2022-08-03T08:14:42;6.10;;;2.40;;
65737;SDS011;52478;51.844;6.582;2022-08-03T08:17:10;6.93;;;2.22;;
65737;SDS011;52478;51.844;6.582;2022-08-03T08:19:36;5.57;;;2.20;;
65737;SDS011;52478;51.844;6.582;2022-08-03T08:22:03;9.45;;;2.47;;
65737;SDS011;52478;51.844;6.582;2022-08-03T08:24:31;6.95;;;2.00;;
65737;SDS011;52478;51.844;6.582;2022-08-03T08:26:58;6.30;;;2.28;;
65737;SDS011;52478;51.844;6.582;2022-08-03T08:29:25;7.32;;;2.38;;
65737;SDS011;52478;51.844;6.582;2022-08-03T08:31:51;6.57;;;2.13;;
65737;SDS011;52478;51.844;6.582;2022-08-03T08:34:17;6.78;;;2.30;;
65737;SDS011;52478;51.844;6.582;2022-08-03T08:36:44;7.05;;;2.28;;
65737;SDS011;52478;51.844;6.582;2022-08-03T08:39:10;5.95;;;2.17;;
65737;SDS011;52478;51.844;6.582;2022-08-03T08:41:38;5.63;;;2.15;;
65737;SDS011;52478;51.844;6.582;2022-08-03T08:44:04;7.55;;;2.58;;
65737;SDS011;52478;51.844;6.582;2022-08-03T08:46:32;5.90;;;2.10;;
65737;SDS011;52478;51.844;6.582;2022-08-03T08:48:59;7.43;;;2.30;;
65737;SDS011;52478;51.844;6.582;2022-08-03T08:51:26;6.75;;;2.13;;
65737;SDS011;52478;51.844;6.582;2022-08-03T08:53:53;5.90;;;2.05;;
65737;SDS011;52478;51.844;6.582;2022-08-03T08:56:19;5.50;;;2.10;;
65737;SDS011;52478;51.844;6.582;2022-08-03T08:58:52;6.97;;;2.47;;
65737;SDS011;52478;51.844;6.582;2022-08-03T09:01:19;6.90;;;2.20;;
65737;SDS011;52478;51.844;6.582;2022-08-03T09:03:46;7.95;;;2.15;;
65737;SDS011;52478;51.844;6.582;2022-08-03T09:06:12;7.15;;;2.30;;
65737;SDS011;52478;51.844;6.582;2022-08-03T09:08:39;6.38;;;2.08;;
65737;SDS011;52478;51.844;6.582;2022-08-03T09:11:05;8.30;;;2.00;;
65737;SDS011;52478;51.844;6.582;2022-08-03T09:13:32;9.52;;;2.50;;
65737;SDS011;52478;51.844;6.582;2022-08-03T09:16:09;6.20;;;2.42;;
65737;SDS011;52478;51.844;6.582;2022-08-03T09:18:36;6.85;;;2.25;;
65737;SDS011;52478;51.844;6.582;2022-08-03T09:21:11;7.25;;;2.42;;
65737;SDS011;52478;51.844;6.582;2022-08-03T09:23:42;6.45;;;2.20;;
65737;SDS011;52478;51.844;6.582;2022-08-03T09:26:09;6.22;;;2.10;;
65737;SDS011;52478;51.844;6.582;2022-08-03T09:28:35;5.90;;;2.20;;
65737;SDS011;52478;51.844;6.582;2022-08-03T09:31:02;6.30;;;1.90;;
65737;SDS011;52478;51.844;6.582;2022-08-03T09:33:29;6.50;;;2.22;;
65737;SDS011;52478;51.844;6.582;2022-08-03T09:35:56;6.38;;;2.53;;
65737;SDS011;52478;51.844;6.582;2022-08-03T09:38:22;8.30;;;2.35;;
65737;SDS011;52478;51.844;6.582;2022-08-03T09:40:50;8.57;;;2.22;;
65737;SDS011;52478;51.844;6.582;2022-08-03T09:43:17;7.28;;;2.50;;
65737;SDS011;52478;51.844;6.582;2022-08-03T09:45:43;7.43;;;2.38;;
65737;SDS011;52478;51.844;6.582;2022-08-03T09:48:20;7.20;;;2.20;;
65737;SDS011;52478;51.844;6.582;2022-08-03T09:50:48;5.72;;;2.00;;
65737;SDS011;52478;51.844;6.582;2022-08-03T09:53:15;8.15;;;2.35;;
65737;SDS011;52478;51.844;6.582;2022-08-03T10:03:02;6.45;;;2.00;;
65737;SDS011;52478;51.844;6.582;2022-08-03T10:05:30;6.72;;;2.15;;
65737;SDS011;52478;51.844;6.582;2022-08-03T10:07:58;6.22;;;2.13;;
65737;SDS011;52478;51.844;6.582;2022-08-03T10:10:25;7.07;;;2.45;;
65737;SDS011;52478;51.844;6.582;2022-08-03T10:12:51;6.00;;;2.10;;
65737;SDS011;52478;51.844;6.582;2022-08-03T10:15:17;6.47;;;1.90;;
65737;SDS011;52478;51.844;6.582;2022-08-03T10:17:44;6.53;;;1.90;;
65737;SDS011;52478;51.844;6.582;2022-08-03T10:20:10;6.00;;;2.25;;
65737;SDS011;52478;51.844;6.582;2022-08-03T10:22:37;5.88;;;2.25;;
65737;SDS011;52478;51.844;6.582;2022-08-03T10:25:07;6.57;;;2.00;;
65737;SDS011;52478;51.844;6.582;2022-08-03T10:27:34;6.18;;;1.92;;
65737;SDS011;52478;51.844;6.582;2022-08-03T10:30:03;8.43;;;2.17;;
65737;SDS011;52478;51.844;6.582;2022-08-03T10:32:30;6.32;;;1.98;;
65737;SDS011;52478;51.844;6.582;2022-08-03T10:39:50;6.40;;;1.95;;
65737;SDS011;52478;51.844;6.582;2022-08-03T10:42:22;7.15;;;2.08;;
65737;SDS011;52478;51.844;6.582;2022-08-03T10:44:49;6.20;;;1.92;;
65737;SDS011;52478;51.844;6.582;2022-08-03T10:47:17;6.78;;;2.03;;
65737;SDS011;52478;51.844;6.582;2022-08-03T10:49:46;6.88;;;1.83;;
65737;SDS011;52478;51.844;6.582;2022-08-03T10:52:13;5.80;;;2.10;;
65737;SDS011;52478;51.844;6.582;2022-08-03T10:54:40;6.50;;;1.92;;
65737;SDS011;52478;51.844;6.582;2022-08-03T11:00:03;6.30;;;1.98;;
65737;SDS011;52478;51.844;6.582;2022-08-03T11:05:25;5.63;;;2.10;;
65737;SDS011;52478;51.844;6.582;2022-08-03T11:10:33;4.47;;;1.70;;
65737;SDS011;52478;51.844;6.582;2022-08-03T11:22:49;6.55;;;1.92;;
65737;SDS011;52478;51.844;6.582;2022-08-03T11:27:44;5.20;;;1.88;;
65737;SDS011;52478;51.844;6.582;2022-08-03T11:30:16;6.55;;;1.73;;
65737;SDS011;52478;51.844;6.582;2022-08-03T11:32:55;5.10;;;1.83;;
65737;SDS011;52478;51.844;6.582;2022-08-03T11:35:22;5.63;;;1.73;;
65737;SDS011;52478;51.844;6.582;2022-08-03T11:42:42;5.05;;;1.70;;
65737;SDS011;52478;51.844;6.582;2022-08-03T11:45:10;6.10;;;1.88;;
65737;SDS011;52478;51.844;6.582;2022-08-03T11:47:37;5.13;;;1.60;;
65737;SDS011;52478;51.844;6.582;2022-08-03T11:50:04;5.70;;;1.73;;
65737;SDS011;52478;51.844;6.582;2022-08-03T11:52:33;5.80;;;1.75;;
65737;SDS011;52478;51.844;6.582;2022-08-03T11:54:59;5.18;;;1.60;;
65737;SDS011;52478;51.844;6.582;2022-08-03T11:59:55;5.35;;;1.50;;
65737;SDS011;52478;51.844;6.582;2022-08-03T12:02:21;4.55;;;1.50;;
65737;SDS011;52478;51.844;6.582;2022-08-03T12:04:48;5.18;;;1.50;;
65737;SDS011;52478;51.844;6.582;2022-08-03T12:07:14;5.03;;;1.60;;
65737;SDS011;52478;51.844;6.582;2022-08-03T12:09:41;5.45;;;1.42;;
65737;SDS011;52478;51.844;6.582;2022-08-03T12:12:07;6.22;;;1.70;;
65737;SDS011;52478;51.844;6.582;2022-08-03T12:14:34;5.40;;;1.75;;
65737;SDS011;52478;51.844;6.582;2022-08-03T12:17:02;5.22;;;1.80;;
65737;SDS011;52478;51.844;6.582;2022-08-03T12:19:40;5.38;;;1.58;;
65737;SDS011;52478;51.844;6.582;2022-08-03T12:22:06;4.88;;;1.70;;
65737;SDS011;52478;51.844;6.582;2022-08-03T12:24:39;6.00;;;1.80;;
65737;SDS011;52478;51.844;6.582;2022-08-03T12:27:05;4.47;;;1.55;;
65737;SDS011;52478;51.844;6.582;2022-08-03T12:29:32;6.10;;;1.50;;
65737;SDS011;52478;51.844;6.582;2022-08-03T12:31:58;6.95;;;1.83;;
65737;SDS011;52478;51.844;6.582;2022-08-03T12:37:07;5.22;;;1.63;;
65737;SDS011;52478;51.844;6.582;2022-08-03T12:39:33;4.53;;;1.50;;
65737;SDS011;52478;51.844;6.582;2022-08-03T12:41:59;6.10;;;1.60;;
65737;SDS011;52478;51.844;6.582;2022-08-03T12:44:28;4.95;;;1.52;;
65737;SDS011;52478;51.844;6.582;2022-08-03T12:46:56;5.20;;;1.77;;
65737;SDS011;52478;51.844;6.582;2022-08-03T12:49:23;5.55;;;1.73;;
65737;SDS011;52478;51.844;6.582;2022-08-03T12:51:56;5.20;;;1.48;;
65737;SDS011;52478;51.844;6.582;2022-08-03T12:54:24;4.70;;;1.42;;
65737;SDS011;52478;51.844;6.582;2022-08-03T12:56:57;5.30;;;1.67;;
65737;SDS011;52478;51.844;6.582;2022-08-03T12:59:23;6.85;;;1.40;;
65737;SDS011;52478;51.844;6.582;2022-08-03T13:01:50;4.32;;;1.33;;
65737;SDS011;52478;51.844;6.582;2022-08-03T13:04:24;4.15;;;1.23;;
65737;SDS011;52478;51.844;6.582;2022-08-03T13:06:55;5.38;;;1.45;;
65737;SDS011;52478;51.844;6.582;2022-08-03T13:09:21;5.43;;;1.48;;
65737;SDS011;52478;51.844;6.582;2022-08-03T13:12:04;4.15;;;1.30;;
65737;SDS011;52478;51.844;6.582;2022-08-03T13:14:31;4.32;;;1.38;;
65737;SDS011;52478;51.844;6.582;2022-08-03T13:16:57;5.22;;;1.50;;
65737;SDS011;52478;51.844;6.582;2022-08-03T13:19:24;4.88;;;1.45;;
65737;SDS011;52478;51.844;6.582;2022-08-03T13:21:50;6.20;;;1.70;;
65737;SDS011;52478;51.844;6.582;2022-08-03T13:24:17;4.70;;;1.35;;
65737;SDS011;52478;51.844;6.582;2022-08-03T13:26:43;5.95;;;1.40;;
65737;SDS011;52478;51.844;6.582;2022-08-03T13:29:11;5.45;;;1.42;;
65737;SDS011;52478;51.844;6.582;2022-08-03T13:31:37;4.53;;;1.30;;
65737;SDS011;52478;51.844;6.582;2022-08-03T13:34:03;5.03;;;1.45;;
65737;SDS011;52478;51.844;6.582;2022-08-03T13:36:29;5.22;;;1.33;;
65737;SDS011;52478;51.844;6.582;2022-08-03T13:38:56;4.55;;;1.40;;
65737;SDS011;52478;51.844;6.582;2022-08-03T13:41:22;4.88;;;1.20;;
65737;SDS011;52478;51.844;6.582;2022-08-03T13:43:49;5.78;;;1.30;;
65737;SDS011;52478;51.844;6.582;2022-08-03T13:46:16;5.07;;;1.20;;
65737;SDS011;52478;51.844;6.582;2022-08-03T13:48:44;4.65;;;1.40;;
65737;SDS011;52478;51.844;6.582;2022-08-03T13:51:10;5.13;;;1.30;;
65737;SDS011;52478;51.844;6.582;2022-08-03T13:53:37;6.63;;;1.60;;
65737;SDS011;52478;51.844;6.582;2022-08-03T13:56:03;5.30;;;1.50;;
65737;SDS011;52478;51.844;6.582;2022-08-03T13:58:29;4.93;;;1.30;;
65737;SDS011;52478;51.844;6.582;2022-08-03T14:00:56;6.43;;;1.58;;
65737;SDS011;52478;51.844;6.582;2022-08-03T14:03:24;4.13;;;1.00;;
65737;SDS011;52478;51.844;6.582;2022-08-03T14:05:50;5.07;;;1.55;;
65737;SDS011;52478;51.844;6.582;2022-08-03T14:08:16;5.57;;;1.30;;
65737;SDS011;52478;51.844;6.582;2022-08-03T14:10:43;5.82;;;1.40;;
65737;SDS011;52478;51.844;6.582;2022-08-03T14:20:29;5.30;;;1.17;;
65737;SDS011;52478;51.844;6.582;2022-08-03T14:22:56;7.43;;;1.55;;
65737;SDS011;52478;51.844;6.582;2022-08-03T14:25:22;6.72;;;1.17;;
65737;SDS011;52478;51.844;6.582;2022-08-03T14:27:48;4.97;;;1.50;;
65737;SDS011;52478;51.844;6.582;2022-08-03T14:30:15;5.82;;;1.40;;
65737;SDS011;52478;51.844;6.582;2022-08-03T14:32:41;4.93;;;1.30;;
65737;SDS011;52478;51.844;6.582;2022-08-03T14:35:08;3.97;;;1.20;;
65737;SDS011;52478;51.844;6.582;2022-08-03T14:37:35;4.82;;;1.23;;
65737;SDS011;52478;51.844;6.582;2022-08-03T14:40:02;5.35;;;1.13;;
65737;SDS011;52478;51.844;6.582;2022-08-03T14:42:28;4.47;;;1.20;;
65737;SDS011;52478;51.844;6.582;2022-08-03T14:44:55;4.07;;;1.10;;
65737;SDS011;52478;51.844;6.582;2022-08-03T14:47:21;5.68;;;1.27;;
65737;SDS011;52478;51.844;6.582;2022-08-03T14:49:47;5.30;;;1.45;;
65737;SDS011;52478;51.844;6.582;2022-08-03T14:52:14;4.47;;;1.20;;
65737;SDS011;52478;51.844;6.582;2022-08-03T14:54:41;5.13;;;1.10;;
65737;SDS011;52478;51.844;6.582;2022-08-03T14:57:08;5.57;;;1.23;;
65737;SDS011;52478;51.844;6.582;2022-08-03T14:59:34;4.20;;;1.05;;
65737;SDS011;52478;51.844;6.582;2022-08-03T15:02:00;5.30;;;1.27;;
65737;SDS011;52478;51.844;6.582;2022-08-03T15:04:26;5.97;;;1.42;;
65737;SDS011;52478;51.844;6.582;2022-08-03T15:06:53;5.30;;;1.55;;
65737;SDS011;52478;51.844;6.582;2022-08-03T15:09:19;9.93;;;1.85;;
65737;SDS011;52478;51.844;6.582;2022-08-03T15:11:47;9.38;;;2.03;;
65737;SDS011;52478;51.844;6.582;2022-08-03T15:14:13;12.55;;;2.22;;
65737;SDS011;52478;51.844;6.582;2022-08-03T15:16:40;10.70;;;2.05;;
65737;SDS011;52478;51.844;6.582;2022-08-03T15:19:06;11.10;;;2.22;;
65737;SDS011;52478;51.844;6.582;2022-08-03T15:21:32;11.60;;;2.50;;
65737;SDS011;52478;51.844;6.582;2022-08-03T15:23:59;9.02;;;1.92;;
65737;SDS011;52478;51.844;6.582;2022-08-03T15:26:25;9.73;;;2.00;;
65737;SDS011;52478;51.844;6.582;2022-08-03T15:28:53;7.70;;;2.15;;
65737;SDS011;52478;51.844;6.582;2022-08-03T15:31:20;9.85;;;2.10;;
65737;SDS011;52478;51.844;6.582;2022-08-03T15:36:12;5.68;;;1.52;;
65737;SDS011;52478;51.844;6.582;2022-08-03T15:38:39;7.50;;;1.90;;
65737;SDS011;52478;51.844;6.582;2022-08-03T15:43:32;10.27;;;2.20;;
65737;SDS011;52478;51.844;6.582;2022-08-03T15:45:59;8.43;;;1.85;;
65737;SDS011;52478;51.844;6.582;2022-08-03T15:48:26;9.77;;;1.95;;
65737;SDS011;52478;51.844;6.582;2022-08-03T15:50:52;10.13;;;2.10;;
65737;SDS011;52478;51.844;6.582;2022-08-03T15:53:19;6.72;;;2.00;;
65737;SDS011;52478;51.844;6.582;2022-08-03T15:55:45;7.65;;;1.83;;
65737;SDS011;52478;51.844;6.582;2022-08-03T15:58:12;10.68;;;1.92;;
65737;SDS011;52478;51.844;6.582;2022-08-03T16:00:38;7.63;;;1.85;;
65737;SDS011;52478;51.844;6.582;2022-08-03T16:03:06;7.95;;;1.90;;